.
WxDataArchive / Data Records for 2012-12-22
2012-12-21 December 2012 2012-12-23

Data Records for Saturday, 22 December 2012

Time	Temp	Chill	HIndex	Humid	Dewpt	 Wind 	HiWind	WindDir	Rain 	Barom 
-----	----	-----	------	-----	-----	------	------	-------	-----	----- 
00:00	33.1	33.1	33.1	73	25.4	2	6	338	0.00	30.015 
00:05	33.1	33.1	33.1	73	25.4	3	10	338	0.00	30.015 
00:10	32.9	32.9	32.9	72	24.9	2	7	338	0.00	30.015 
00:15	32.9	32.9	32.9	71	24.5	3	5	270	0.00	30.019 
00:20	32.9	32.9	32.9	71	24.5	3	9	270	0.00	30.019 
00:25	32.9	32.9	32.9	70	24.2	3	6	270	0.00	30.019 
00:30	32.9	32.9	32.9	70	24.2	3	6	315	0.00	30.023 
00:35	32.9	32.9	32.9	70	24.2	3	13	315	0.00	30.023 
00:40	32.9	32.9	32.9	70	24.2	2	6	292	0.00	30.023 
00:45	32.9	32.9	32.9	70	24.2	2	6	292	0.00	30.030 
00:50	32.9	32.9	32.9	71	24.5	2	6	315	0.00	30.030 
00:55	32.8	29.0	32.8	70	24.1	4	10	315	0.00	30.030 
01:00	32.8	29.0	32.8	69	23.8	4	11	315	0.00	30.036 
01:05	32.8	32.8	32.8	70	24.1	3	9	338	0.00	30.036 
01:10	32.8	32.8	32.8	71	24.4	3	6	338	0.00	30.036 
01:15	32.7	32.7	32.7	71	24.4	2	6	315	0.00	30.038 
01:20	32.7	32.7	32.7	71	24.4	2	5	292	0.00	30.038 
01:25	32.7	32.7	32.7	71	24.4	3	11	315	0.00	30.038 
01:30	32.5	32.5	32.5	71	24.2	1	4	270	0.00	30.046 
01:35	32.5	32.5	32.5	70	23.8	3	7	292	0.00	30.046 
01:40	32.5	32.5	32.5	70	23.8	3	7	248	0.00	30.046 
01:45	32.5	32.5	32.5	70	23.8	3	6	315	0.00	30.044 
01:50	32.5	32.5	32.5	70	23.8	3	7	270	0.00	30.044 
01:55	32.4	32.4	32.4	70	23.7	2	6	292	0.00	30.044 
02:00	32.4	32.4	32.4	70	23.7	3	9	338	0.00	30.049 
02:05	32.4	32.4	32.4	69	23.4	2	5	292	0.00	30.049 
02:10	32.2	32.2	32.2	68	22.8	3	9	315	0.00	30.049 
02:15	32.4	32.4	32.4	68	23.0	3	7	292	0.00	30.056 
02:20	32.4	32.4	32.4	68	23.0	2	5	315	0.00	30.056 
02:25	32.4	32.4	32.4	69	23.4	2	7	270	0.00	30.056 
02:30	32.4	32.4	32.4	69	23.4	2	6	292	0.00	30.067 
02:35	32.4	32.4	32.4	69	23.4	2	9	292	0.00	30.067 
02:40	32.2	32.2	32.2	70	23.5	2	5	338	0.00	30.067 
02:45	32.2	32.2	32.2	71	23.9	2	6	338	0.00	30.069 
02:50	32.2	32.2	32.2	71	23.9	1	3	338	0.00	30.069 
02:55	32.2	32.2	32.2	72	24.2	2	4	292	0.00	30.069 
03:00	32.2	32.2	32.2	72	24.2	3	8	270	0.00	30.071 
03:05	32.2	32.2	32.2	72	24.2	2	10	292	0.00	30.071 
03:10	32.1	32.1	32.1	71	23.8	2	10	248	0.00	30.071 
03:15	32.1	32.1	32.1	70	23.4	2	5	315	0.00	30.077 
03:20	31.9	31.9	31.9	70	23.2	2	6	315	0.00	30.077 
03:25	31.9	31.9	31.9	71	23.6	1	5	315	0.00	30.077 
03:30	31.8	31.8	31.8	69	22.8	3	10	270	0.00	30.081 
03:35	31.6	31.6	31.6	68	22.3	3	10	315	0.00	30.081 
03:40	31.5	31.5	31.5	69	22.5	3	6	338	0.00	30.081 
03:45	31.3	31.3	31.3	69	22.3	3	7	315	0.00	30.074 
03:50	31.3	31.3	31.3	69	22.3	2	7	292	0.00	30.074 
03:55	31.3	31.3	31.3	70	22.7	1	4	315	0.00	30.074 
04:00	31.3	31.3	31.3	70	22.7	1	4	292	0.00	30.081 
04:05	31.3	31.3	31.3	71	23.0	2	5	292	0.00	30.081 
04:10	31.3	31.3	31.3	71	23.0	2	5	338	0.00	30.081 
04:15	31.3	31.3	31.3	72	23.3	1	4	338	0.00	30.087 
04:20	31.3	31.3	31.3	72	23.3	1	3	338	0.00	30.087 
04:25	31.3	31.3	31.3	73	23.7	2	5	270	0.00	30.087 
04:30	31.3	31.3	31.3	72	23.3	3	7	338	0.00	30.089 
04:35	31.2	31.2	31.2	71	22.9	3	7	248	0.00	30.089 
04:40	31.2	31.2	31.2	70	22.6	3	7	270	0.00	30.089 
04:45	31.0	31.0	31.0	70	22.4	3	9	315	0.00	30.097 
04:50	31.0	31.0	31.0	71	22.7	2	5	292	0.00	30.097 
04:55	31.0	31.0	31.0	71	22.7	2	9	270	0.00	30.097 
05:00	30.9	30.9	30.9	71	22.6	2	5	338	0.00	30.099 
05:05	30.9	30.9	30.9	71	22.6	2	6	315	0.00	30.099 
05:10	30.7	30.7	30.7	71	22.4	3	6	292	0.00	30.099 
05:15	30.7	30.7	30.7	71	22.4	3	10	270	0.00	30.100 
05:20	30.7	30.7	30.7	71	22.4	2	6	315	0.00	30.100 
05:25	30.7	30.7	30.7	71	22.4	2	6	315	0.00	30.100 
05:30	30.6	30.6	30.6	71	22.3	2	6	315	0.00	30.092 
05:35	30.6	30.6	30.6	71	22.3	1	3	270	0.00	30.092 
05:40	30.4	30.4	30.4	70	21.8	2	7	248	0.00	30.092 
05:45	30.4	30.4	30.4	70	21.8	2	6	270	0.00	30.096 
05:50	30.4	30.4	30.4	69	21.5	2	5	270	0.00	30.096 
05:55	30.3	30.3	30.3	69	21.4	2	7	248	0.00	30.096 
06:00	30.3	30.3	30.3	69	21.4	3	7	270	0.00	30.099 
06:05	30.1	30.1	30.1	69	21.2	2	6	270	0.00	30.099 
06:10	30.1	30.1	30.1	70	21.5	2	6	292	0.00	30.099 
06:15	30.1	30.1	30.1	71	21.9	1	4	292	0.00	30.103 
06:20	30.1	30.1	30.1	71	21.9	1	4	292	0.00	30.103 
06:25	30.1	30.1	30.1	71	21.9	2	9	292	0.00	30.103 
06:30	30.0	30.0	30.0	70	21.4	2	9	270	0.00	30.107 
06:35	29.8	29.8	29.8	69	20.9	3	7	292	0.00	30.107 
06:40	29.8	29.8	29.8	69	20.9	3	6	338	0.00	30.107 
06:45	29.7	29.7	29.7	69	20.8	2	7	338	0.00	30.117 
06:50	29.7	29.7	29.7	70	21.1	2	7	292	0.00	30.117 
06:55	29.5	29.5	29.5	70	20.9	1	3	292	0.00	30.117 
07:00	29.5	29.5	29.5	71	21.3	1	4	338	0.00	30.120 
07:05	29.5	29.5	29.5	71	21.3	1	3	338	0.00	30.120 
07:10	29.7	29.7	29.7	72	21.8	1	3	315	0.00	30.120 
07:15	29.7	29.7	29.7	72	21.8	2	5	315	0.00	30.124 
07:20	29.8	29.8	29.8	72	21.9	1	3	292	0.00	30.124 
07:25	30.0	30.0	30.0	73	22.4	1	3	292	0.00	30.124 
07:30	30.0	30.0	30.0	74	22.7	1	3	292	0.00	30.133 
07:35	30.0	30.0	30.0	74	22.7	1	4	315	0.00	30.133 
07:40	30.0	30.0	30.0	74	22.7	1	2	292	0.00	30.133 
07:45	30.0	30.0	30.0	74	22.7	1	4	248	0.00	30.129 
07:50	30.0	30.0	30.0	74	22.7	1	4	248	0.00	30.129 
07:55	29.8	29.8	29.8	73	22.2	1	5	315	0.00	30.129 
08:00	29.8	29.8	29.8	73	22.2	2	5	315	0.00	30.133 
08:05	29.8	29.8	29.8	73	22.2	1	3	292	0.00	30.133 
08:10	29.8	29.8	29.8	72	21.9	2	7	270	0.00	30.133 
08:15	29.8	29.8	29.8	72	21.9	1	3	315	0.00	30.139 
08:20	30.0	30.0	30.0	72	22.1	1	3	248	0.00	30.139 
08:25	30.0	30.0	30.0	73	22.4	1	3	248	0.00	30.139 
08:30	29.5	29.5	29.5	74	22.3	2	4	248	0.00	30.148 
08:35	29.3	29.3	29.3	76	22.7	2	5	248	0.00	30.148 
08:40	28.7	28.7	28.7	77	22.4	2	5	248	0.00	30.148 
08:45	28.4	28.4	28.4	78	22.4	2	7	248	0.00	30.156 
08:50	28.2	28.2	28.2	79	22.5	1	4	225	0.00	30.156 
08:55	28.1	28.1	28.1	79	22.4	2	7	248	0.00	30.156 
09:00	27.9	27.9	27.9	79	22.2	2	6	248	0.00	30.167 
09:05	27.8	27.8	27.8	80	22.4	2	4	248	0.00	30.167 
09:10	27.6	27.6	27.6	80	22.3	2	6	248	0.00	30.167 
09:15	27.6	27.6	27.6	80	22.3	2	4	248	0.00	30.173 
09:20	27.6	27.6	27.6	80	22.3	2	5	248	0.00	30.173 
09:25	27.6	27.6	27.6	80	22.3	2	6	248	0.00	30.173 
09:30	27.6	27.6	27.6	80	22.3	3	6	248	0.00	30.180 
09:35	27.8	27.8	27.8	80	22.4	1	4	248	0.00	30.180 
09:40	27.8	27.8	27.8	80	22.4	2	6	248	0.00	30.180 
09:45	27.8	27.8	27.8	80	22.4	2	5	270	0.00	30.185 
09:50	27.8	27.8	27.8	80	22.4	2	4	248	0.00	30.185 
09:55	27.8	27.8	27.8	80	22.4	2	5	270	0.00	30.185 
10:00	27.8	27.8	27.8	80	22.4	2	6	270	0.00	30.187 
10:05	27.6	27.6	27.6	80	22.3	1	4	248	0.00	30.187 
10:10	27.5	27.5	27.5	79	21.9	2	9	248	0.00	30.187 
10:15	27.3	27.3	27.3	79	21.7	2	5	248	0.00	30.185 
10:20	27.3	27.3	27.3	79	21.7	2	5	248	0.00	30.185 
10:25	27.5	27.5	27.5	80	22.2	2	5	248	0.00	30.185 
10:30	27.6	27.6	27.6	79	22.0	1	5	248	0.00	30.182 
10:35	27.6	27.6	27.6	79	22.0	2	7	248	0.00	30.182 
10:40	27.9	27.9	27.9	79	22.2	1	3	248	0.00	30.182 
10:45	28.2	28.2	28.2	78	22.2	2	4	248	0.00	30.174 
10:50	28.5	28.5	28.5	78	22.5	2	4	248	0.00	30.174 
10:55	28.8	28.8	28.8	77	22.5	2	6	248	0.00	30.174 
11:00	29.0	29.0	29.0	77	22.7	2	5	248	0.00	30.169 
11:05	29.3	29.3	29.3	77	23.0	2	4	248	0.00	30.169 
11:10	29.5	29.5	29.5	75	22.6	3	5	248	0.00	30.169 
11:15	29.4	29.4	29.4	75	22.5	2	6	248	0.00	30.174 
11:20	29.4	29.4	29.4	76	22.8	1	4	248	0.00	30.174 
11:25	29.8	29.8	29.8	76	23.2	1	6	248	0.00	30.174 
11:30	30.3	30.3	30.3	76	23.7	1	3	248	0.00	30.171 
11:35	30.3	30.3	30.3	74	23.0	2	5	248	0.00	30.171 
11:40	30.4	30.4	30.4	74	23.1	2	4	248	0.00	30.171 
11:45	30.7	30.7	30.7	74	23.4	2	6	248	0.00	30.169 
11:50	31.0	31.0	31.0	73	23.4	2	6	248	0.00	30.169 
11:55	31.0	31.0	31.0	73	23.4	2	5	248	0.00	30.169 
12:00	30.9	30.9	30.9	73	23.3	2	7	248	0.00	30.166 
12:05	31.2	31.2	31.2	72	23.2	2	6	270	0.00	30.166 
12:10	31.2	31.2	31.2	71	22.9	3	6	248	0.00	30.166 
12:15	31.0	31.0	31.0	72	23.1	2	5	315	0.00	30.162 
12:20	31.0	31.0	31.0	71	22.7	2	5	248	0.00	30.162 
12:25	31.0	31.0	31.0	71	22.7	2	5	248	0.00	30.162 
12:30	31.2	31.2	31.2	72	23.2	2	7	270	0.00	30.161 
12:35	31.0	31.0	31.0	72	23.1	3	6	248	0.00	30.161 
12:40	31.0	31.0	31.0	72	23.1	3	8	248	0.00	30.161 
12:45	30.9	30.9	30.9	72	23.0	2	6	248	0.00	30.149 
12:50	30.9	30.9	30.9	73	23.3	2	7	248	0.00	30.149 
12:55	30.9	30.9	30.9	73	23.3	2	4	248	0.00	30.149 
13:00	31.0	31.0	31.0	74	23.7	1	3	248	0.00	30.148 
13:05	30.9	30.9	30.9	73	23.3	3	12	248	0.00	30.148 
13:10	30.7	30.7	30.7	73	23.1	2	4	248	0.00	30.148 
13:15	30.7	30.7	30.7	74	23.4	2	7	248	0.00	30.138 
13:20	30.4	30.4	30.4	74	23.1	2	5	248	0.00	30.138 
13:25	30.0	30.0	30.0	74	22.7	2	6	248	0.00	30.138 
13:30	29.8	29.8	29.8	75	22.9	2	5	248	0.00	30.137 
13:35	29.8	29.8	29.8	76	23.2	2	5	248	0.00	30.137 
13:40	30.4	30.4	30.4	76	23.8	1	5	248	0.00	30.137 
13:45	30.4	30.4	30.4	75	23.4	3	7	248	0.00	30.134 
13:50	30.3	30.3	30.3	75	23.3	2	5	248	0.00	30.134 
13:55	30.1	30.1	30.1	74	22.8	3	7	248	0.00	30.134 
14:00	29.8	29.8	29.8	75	22.9	2	6	248	0.00	30.129 
14:05	29.8	29.8	29.8	75	22.9	2	7	248	0.00	30.129 
14:10	30.0	30.0	30.0	75	23.1	2	4	248	0.00	30.129 
14:15	29.8	29.8	29.8	75	22.9	1	4	248	0.00	30.126 
14:20	29.7	29.7	29.7	75	22.8	1	3	248	0.00	30.126 
14:25	30.1	30.1	30.1	76	23.5	2	4	248	0.00	30.126 
14:30	30.0	30.0	30.0	75	23.1	3	7	248	0.00	30.117 
14:35	30.1	30.1	30.1	75	23.2	2	7	248	0.00	30.117 
14:40	30.0	30.0	30.0	74	22.7	3	7	248	0.00	30.117 
14:45	30.0	30.0	30.0	75	23.1	2	7	248	0.00	30.121 
14:50	30.0	30.0	30.0	75	23.1	3	6	248	0.00	30.121 
14:55	30.1	30.1	30.1	74	22.8	2	6	248	0.00	30.121 
15:00	30.1	30.1	30.1	74	22.8	2	4	248	0.00	30.123 
15:05	30.0	30.0	30.0	74	22.7	2	5	248	0.00	30.123 
15:10	29.8	29.8	29.8	74	22.5	1	3	248	0.00	30.123 
15:15	29.7	29.7	29.7	73	22.1	2	5	248	0.00	30.123 
15:20	29.3	29.3	29.3	73	21.7	1	4	248	0.00	30.123 
15:25	29.4	29.4	29.4	74	22.2	1	4	248	0.00	30.123 
15:30	29.7	29.7	29.7	74	22.4	1	4	248	0.00	30.122 
15:35	30.1	30.1	30.1	73	22.5	1	4	248	0.00	30.122 
15:40	30.1	30.1	30.1	72	22.2	1	3	248	0.00	30.122 
15:45	30.3	30.3	30.3	72	22.4	2	4	248	0.00	30.122 
15:50	30.3	30.3	30.3	71	22.0	1	4	248	0.00	30.122 
15:55	30.0	30.0	30.0	69	21.1	2	7	248	0.00	30.122 
16:00	29.7	29.7	29.7	69	20.8	1	4	270	0.00	30.128 
16:05	29.5	29.5	29.5	69	20.6	1	3	270	0.00	30.128 
16:10	29.5	29.5	29.5	68	20.3	1	5	248	0.00	30.128 
16:15	29.4	29.4	29.4	67	19.8	2	5	248	0.00	30.123 
16:20	29.1	29.1	29.1	67	19.5	2	4	248	0.00	30.123 
16:25	29.0	29.0	29.0	67	19.4	2	6	248	0.00	30.123 
16:30	28.8	28.8	28.8	67	19.2	2	5	248	0.00	30.119 
16:35	28.7	28.7	28.7	68	19.5	1	4	248	0.00	30.119 
16:40	28.7	28.7	28.7	68	19.5	1	4	248	0.00	30.119 
16:45	28.5	28.5	28.5	68	19.3	1	3	248	0.00	30.121 
16:50	28.4	28.4	28.4	68	19.2	1	3	248	0.00	30.121 
16:55	28.1	28.1	28.1	68	18.9	2	4	248	0.00	30.121 
17:00	27.9	27.9	27.9	69	19.1	1	3	248	0.00	30.119 
17:05	27.8	27.8	27.8	69	19.0	1	3	248	0.00	30.119 
17:10	27.6	27.6	27.6	69	18.8	0	3	248	0.00	30.119 
17:15	27.6	27.6	27.6	69	18.8	1	3	248	0.00	30.114 
17:20	27.5	27.5	27.5	70	19.0	0	3	248	0.00	30.114 
17:25	27.3	27.3	27.3	70	18.8	1	3	248	0.00	30.114 
17:30	27.3	27.3	27.3	70	18.8	0	2	248	0.00	30.113 
17:35	27.2	27.2	27.2	71	19.1	0	1	248	0.00	30.113 
17:40	27.0	27.0	27.0	71	18.9	0	0	---	0.00	30.113 
17:45	26.9	26.9	26.9	72	19.1	0	1	248	0.00	30.112 
17:50	26.9	26.9	26.9	72	19.1	0	2	248	0.00	30.112 
17:55	26.7	26.7	26.7	72	18.9	0	1	248	0.00	30.112 
18:00	26.7	26.7	26.7	73	19.2	0	1	248	0.00	30.113 
18:05	26.6	26.6	26.6	73	19.1	0	1	248	0.00	30.113 
18:10	26.6	26.6	26.6	73	19.1	0	1	248	0.00	30.113 
18:15	26.4	26.4	26.4	74	19.3	0	1	248	0.00	30.112 
18:20	26.4	26.4	26.4	74	19.3	0	2	248	0.00	30.112 
18:25	26.4	26.4	26.4	74	19.3	0	1	248	0.00	30.112 
18:30	26.4	26.4	26.4	74	19.3	0	2	248	0.00	30.111 
18:35	26.4	26.4	26.4	74	19.3	0	1	248	0.00	30.111 
18:40	26.4	26.4	26.4	74	19.3	0	0	---	0.00	30.111 
18:45	26.3	26.3	26.3	74	19.2	0	1	248	0.00	30.112 
18:50	26.3	26.3	26.3	75	19.5	0	2	248	0.00	30.112 
18:55	26.1	26.1	26.1	75	19.3	0	2	248	0.00	30.112 
19:00	26.1	26.1	26.1	76	19.6	0	1	248	0.00	30.117 
19:05	26.1	26.1	26.1	77	19.9	0	1	248	0.00	30.117 
19:10	26.1	26.1	26.1	77	19.9	0	1	248	0.00	30.117 
19:15	26.0	26.0	26.0	77	19.8	0	2	248	0.00	30.111 
19:20	26.0	26.0	26.0	78	20.1	0	1	248	0.00	30.111 
19:25	26.0	26.0	26.0	78	20.1	0	2	248	0.00	30.111 
19:30	25.8	25.8	25.8	79	20.2	0	1	248	0.00	30.114 
19:35	25.8	25.8	25.8	79	20.2	0	1	248	0.00	30.114 
19:40	25.7	25.7	25.7	79	20.1	0	1	248	0.00	30.114 
19:45	25.7	25.7	25.7	80	20.4	0	1	248	0.00	30.112 
19:50	25.6	25.6	25.6	80	20.3	0	1	248	0.00	30.112 
19:55	25.6	25.6	25.6	80	20.3	0	3	248	0.00	30.112 
20:00	25.4	25.4	25.4	81	20.4	0	1	248	0.00	30.111 
20:05	25.4	25.4	25.4	81	20.4	0	2	248	0.00	30.111 
20:10	25.3	25.3	25.3	81	20.3	0	3	248	0.00	30.111 
20:15	25.3	25.3	25.3	81	20.3	0	2	248	0.00	30.109 
20:20	25.3	25.3	25.3	81	20.3	0	3	248	0.00	30.109 
20:25	25.1	25.1	25.1	81	20.1	0	1	248	0.00	30.109 
20:30	25.0	25.0	25.0	81	20.0	0	2	248	0.00	30.098 
20:35	25.0	25.0	25.0	81	20.0	0	1	248	0.00	30.098 
20:40	24.8	24.8	24.8	81	19.8	0	0	---	0.00	30.098 
20:45	24.7	24.7	24.7	81	19.7	0	1	248	0.00	30.097 
20:50	24.7	24.7	24.7	81	19.7	0	1	248	0.00	30.097 
20:55	24.5	24.5	24.5	81	19.5	0	1	248	0.00	30.097 
21:00	24.5	24.5	24.5	81	19.5	0	0	---	0.00	30.089 
21:05	24.4	24.4	24.4	80	19.1	0	0	---	0.00	30.089 
21:10	24.2	24.2	24.2	81	19.2	0	0	---	0.00	30.089 
21:15	24.1	24.1	24.1	81	19.1	0	0	---	0.00	30.087 
21:20	23.8	23.8	23.8	81	18.8	0	0	---	0.00	30.087 
21:25	23.6	23.6	23.6	81	18.6	0	0	---	0.00	30.087 
21:30	23.5	23.5	23.5	81	18.5	0	1	248	0.00	30.079 
21:35	23.3	23.3	23.3	81	18.3	0	1	248	0.00	30.079 
21:40	23.5	23.5	23.5	82	18.8	0	1	248	0.00	30.079 
21:45	23.5	23.5	23.5	82	18.8	0	1	248	0.00	30.065 
21:50	23.6	23.6	23.6	82	18.9	0	1	248	0.00	30.065 
21:55	23.5	23.5	23.5	82	18.8	0	1	248	0.00	30.065 
22:00	23.3	23.3	23.3	82	18.6	0	0	---	0.00	30.068 
22:05	23.2	23.2	23.2	82	18.5	0	0	---	0.00	30.068 
22:10	23.0	23.0	23.0	82	18.3	0	0	---	0.00	30.068 
22:15	22.9	22.9	22.9	82	18.2	0	0	---	0.00	30.073 
22:20	22.7	22.7	22.7	82	18.0	0	0	---	0.00	30.073 
22:25	22.4	22.4	22.4	82	17.8	0	0	---	0.00	30.073 
22:30	22.2	22.2	22.2	83	17.8	0	0	---	0.00	30.077 
22:35	22.1	22.1	22.1	83	17.7	0	0	---	0.00	30.077 
22:40	21.9	21.9	21.9	83	17.5	0	0	---	0.00	30.077 
22:45	21.8	21.8	21.8	84	17.7	0	0	---	0.00	30.069 
22:50	21.8	21.8	21.8	84	17.7	0	0	---	0.00	30.069 
22:55	21.6	21.6	21.6	84	17.5	0	0	---	0.00	30.069 
23:00	21.6	21.6	21.6	84	17.5	0	0	---	0.00	30.067 
23:05	21.6	21.6	21.6	84	17.5	0	0	---	0.00	30.067 
23:10	21.6	21.6	21.6	84	17.5	0	0	---	0.00	30.067 
23:15	21.6	21.6	21.6	85	17.8	0	0	---	0.00	30.058 
23:20	21.6	21.6	21.6	85	17.8	0	1	248	0.00	30.058 
23:25	21.6	21.6	21.6	85	17.8	0	0	---	0.00	30.058 
23:30	21.6	21.6	21.6	85	17.8	0	0	---	0.00	30.056 
23:35	21.6	21.6	21.6	85	17.8	0	0	---	0.00	30.056 
23:40	21.6	21.6	21.6	85	17.8	0	0	---	0.00	30.056 
23:45	21.6	21.6	21.6	85	17.8	0	0	---	0.00	30.055 
23:50	21.6	21.6	21.6	85	17.8	0	0	---	0.00	30.055 
23:55	21.6	21.6	21.6	85	17.8	0	0	---	0.00	30.055 

CoCoRaHS
IN-AL-39
A2 Web Hosting
Creative Commons License
GoDaddy
search engine by freefind advanced

loaded 2018-11-15 05:20:08 • last modified 2010-11-18 10:43:29
Privacy PolicyDisclaimer
• wx.awcolley.com is powered by PmWiki v.2002016 •
• all content (unless otherwise noted) © 2018 A W Colley